Airfield :
LOGIN :

Register | Disclaimer

   EN    FR    IT 

 










Legend :    VFR   Marginal VFR   IFR   Intensive IFR   Very Intensive IFR
Visi :
Ceiling :
>= 8 km
>= 3000ft
5 to 8 km
1000 to 3000 ft
1500m to 5 km
500 to 1000 ft
800 to 1500m
200 to 500 ft
< 800m
< 200 ft
Symbols :   Thunderstorms  Fog  Heavy snow  Heavy precipitations  Wind > 20 kt
SIGMETs :     Misc.  Thunderstorms  Icing  Turbulence  Mountain Waves  Volcanic Ashes







- Airport Elevation : 502 ft
- IATA code : ORK


EICK - Cork

CURRENT METAR :
  • 161900Z 30010KT 9999 BKN018 BKN050 15/10 Q1017 NOSIG

EXPIRED METARs :
  • 161830Z 31010KT 9999 FEW027 BKN050 15/10 Q1017 NOSIG
  • 161800Z 31010KT 9999 -SHRA SCT026 BKN045 15/10 Q1016 NOSIG
  • 161730Z 29012KT 9999 FEW027 BKN050 16/10 Q1016 NOSIG
  • 161700Z 28014KT 9999 FEW030 BKN060 16/10 Q1016 NOSIG
  • 161630Z 29016KT 9999 -DZ FEW030 BKN048 16/09 Q1016 NOSIG

TAF TAF EICK
Valid from the 16 at 18:00 until the 17 at 18:00 UTC


161700Z 1618/1718 29013KT 9999 FEW012 BKN035
TEMPO 1618/1619 -SHRA SCT012 FEW018CB
BECMG 1619/1622 28008KT
BECMG 1623/1702 24008KT
BECMG 1707/1710 24014KT SCT010 BKN015
TEMPO 1708/1718 25016G26KT 6000 -RA BKN010
No reported NOTAMs for that airfield.



MET'MAP, your aeronautical weather chart ! - Copyright ORBIFLY December 2007 - Disclaimer

ORBIFLY MET'MAP TEAM :

Programming & Development : Alexandra Zaïnal
Concept & Development : Baudouin d'Aumeries
Co-Development & Prog : Marc-Olivier Méhu
Technical & hardware support : Manuel Goepfert

Contact : metmap@orbifly.com




SOURCES & CREDITS :

   NOAA